createdAt,value
2023-12-26T00:00:26.534Z,1.17
2023-12-26T00:02:55.474Z,3.47
2023-12-26T00:05:24.261Z,2.07
2023-12-26T00:07:52.812Z,2.37
2023-12-26T00:10:21.425Z,1.50
2023-12-26T00:12:51.313Z,1.40
2023-12-26T00:15:20.209Z,1.73
2023-12-26T00:17:47.747Z,3.83
2023-12-26T00:20:16.350Z,2.87
2023-12-26T00:22:44.758Z,1.50
2023-12-26T00:25:13.330Z,1.07
2023-12-26T00:27:42.610Z,7.30
2023-12-26T00:30:13.343Z,1.23
2023-12-26T00:32:41.960Z,1.70
2023-12-26T00:35:10.567Z,2.83
2023-12-26T00:37:39.391Z,3.07
2023-12-26T00:40:13.697Z,1.90
2023-12-26T00:42:42.287Z,2.23
2023-12-26T00:45:14.443Z,1.87
2023-12-26T00:47:43.129Z,2.93
2023-12-26T00:50:13.547Z,2.03
2023-12-26T00:52:42.081Z,2.33
2023-12-26T00:55:11.025Z,2.97
2023-12-26T00:57:39.485Z,1.80
2023-12-26T01:00:09.412Z,1.67
2023-12-26T01:02:39.593Z,2.03
2023-12-26T01:05:08.671Z,1.60
2023-12-26T01:07:37.127Z,4.40
2023-12-26T01:10:06.646Z,3.13
2023-12-26T01:12:35.235Z,1.70
2023-12-26T01:15:04.035Z,2.03
2023-12-26T01:17:32.670Z,3.30
2023-12-26T01:20:03.946Z,2.83
2023-12-26T01:22:35.142Z,3.07
2023-12-26T01:25:03.695Z,2.70
2023-12-26T01:27:31.375Z,1.43
2023-12-26T01:30:01.224Z,3.60
2023-12-26T01:32:30.041Z,1.63
2023-12-26T01:34:58.445Z,1.80
2023-12-26T01:37:28.521Z,1.47
2023-12-26T01:39:57.293Z,3.57
2023-12-26T01:42:25.755Z,1.33
2023-12-26T01:44:54.385Z,2.73
2023-12-26T01:47:24.394Z,3.00
2023-12-26T01:49:52.961Z,1.70
2023-12-26T01:52:22.872Z,4.77
2023-12-26T01:54:52.733Z,2.27
2023-12-26T01:57:21.296Z,1.93
2023-12-26T01:59:50.156Z,1.77
2023-12-26T02:02:20.796Z,2.77
2023-12-26T02:04:49.428Z,2.70
2023-12-26T02:07:17.925Z,2.07
2023-12-26T02:09:46.815Z,2.67
2023-12-26T02:12:17.342Z,2.40
2023-12-26T02:14:46.286Z,2.57
2023-12-26T02:17:21.553Z,1.20
2023-12-26T02:19:50.222Z,3.90
2023-12-26T02:22:18.903Z,2.10
2023-12-26T02:24:49.131Z,1.73
2023-12-26T02:27:20.326Z,4.00
2023-12-26T02:29:50.452Z,2.50
2023-12-26T02:32:21.004Z,1.10
2023-12-26T02:34:51.451Z,1.87
2023-12-26T02:37:20.275Z,2.37
2023-12-26T02:39:51.692Z,1.40
2023-12-26T02:42:20.713Z,1.67
2023-12-26T02:44:49.419Z,2.73
2023-12-26T02:47:17.876Z,1.53
2023-12-26T02:49:46.382Z,2.50
2023-12-26T02:52:14.818Z,1.97
2023-12-26T02:54:43.256Z,1.73
2023-12-26T02:57:14.170Z,1.60
2023-12-26T02:59:42.741Z,2.73
2023-12-26T03:02:11.121Z,1.40
2023-12-26T03:04:39.561Z,3.47
2023-12-26T03:07:08.060Z,3.53
2023-12-26T03:09:36.447Z,1.80
2023-12-26T03:12:05.223Z,2.03
2023-12-26T03:14:35.053Z,1.73
2023-12-26T03:17:03.543Z,4.37
2023-12-26T03:19:32.362Z,2.23
2023-12-26T03:22:00.776Z,2.97
2023-12-26T03:24:29.353Z,6.70
2023-12-26T03:26:57.720Z,3.43
2023-12-26T03:29:26.099Z,3.27
2023-12-26T03:31:55.973Z,1.97
2023-12-26T03:34:24.467Z,3.10
2023-12-26T03:36:52.909Z,2.67
2023-12-26T03:39:22.087Z,2.63
2023-12-26T03:41:51.158Z,3.27
2023-12-26T03:44:20.485Z,4.17
2023-12-26T03:46:48.972Z,6.03
2023-12-26T03:49:18.895Z,4.43
2023-12-26T03:51:49.143Z,3.63
2023-12-26T03:54:19.610Z,4.63
2023-12-26T03:56:48.075Z,5.40
2023-12-26T03:59:17.806Z,6.10
2023-12-26T04:01:46.525Z,4.57
2023-12-26T04:04:15.170Z,3.07
2023-12-26T04:06:45.199Z,3.23
2023-12-26T04:09:14.481Z,2.07
2023-12-26T04:11:43.606Z,2.13
2023-12-26T04:14:12.034Z,2.43
2023-12-26T04:16:43.093Z,1.53
2023-12-26T04:19:12.234Z,2.80
2023-12-26T04:21:40.705Z,1.80
2023-12-26T04:24:10.683Z,2.43
2023-12-26T04:26:39.115Z,2.83
2023-12-26T04:29:07.550Z,2.80
2023-12-26T04:31:35.955Z,1.63
2023-12-26T04:34:04.500Z,2.13
2023-12-26T04:36:36.316Z,2.33
2023-12-26T04:39:06.140Z,1.03
2023-12-26T04:41:36.179Z,2.73
2023-12-26T04:44:06.137Z,2.57
2023-12-26T04:46:34.881Z,2.57
2023-12-26T04:49:03.758Z,2.93
2023-12-26T04:51:32.290Z,2.80
2023-12-26T04:54:01.491Z,1.93
2023-12-26T04:56:29.873Z,2.60
2023-12-26T04:58:59.889Z,2.10
2023-12-26T05:01:28.493Z,2.10
2023-12-26T05:03:57.051Z,4.33
2023-12-26T05:06:25.765Z,4.37
2023-12-26T05:08:54.159Z,3.27
2023-12-26T05:11:24.717Z,5.00
2023-12-26T05:13:53.548Z,6.27
2023-12-26T05:16:23.534Z,3.37
2023-12-26T05:18:53.366Z,6.33
2023-12-26T05:21:23.459Z,2.93
2023-12-26T05:23:52.674Z,3.13
2023-12-26T05:26:21.159Z,4.70
2023-12-26T05:28:51.162Z,6.43
2023-12-26T05:31:21.129Z,3.93
2023-12-26T05:33:51.709Z,3.37
2023-12-26T05:36:21.419Z,6.27
2023-12-26T05:38:50.244Z,3.27
2023-12-26T05:41:18.992Z,5.90
2023-12-26T05:43:47.512Z,6.63
2023-12-26T05:46:16.054Z,5.53
2023-12-26T05:48:44.974Z,6.07
2023-12-26T05:51:15.293Z,7.33
2023-12-26T05:53:44.232Z,6.23
2023-12-26T05:56:12.760Z,8.90
2023-12-26T05:58:42.231Z,7.97
2023-12-26T06:01:14.018Z,7.43
2023-12-26T06:03:42.546Z,10.00
2023-12-26T06:06:13.124Z,10.83
2023-12-26T06:08:43.409Z,8.30
2023-12-26T06:11:12.007Z,11.23
2023-12-26T06:13:41.720Z,13.43
2023-12-26T06:16:10.294Z,6.53
2023-12-26T06:18:39.855Z,9.93
2023-12-26T06:21:08.358Z,5.43
2023-12-26T06:23:36.811Z,14.17
2023-12-26T06:26:08.628Z,9.03
2023-12-26T06:28:38.242Z,7.53
2023-12-26T06:31:06.713Z,12.87
2023-12-26T06:33:35.362Z,10.93
2023-12-26T06:36:04.069Z,4.77
2023-12-26T06:38:33.214Z,8.63
2023-12-26T06:41:03.005Z,9.10
2023-12-26T06:43:33.034Z,10.97
2023-12-26T06:46:04.924Z,6.90
2023-12-26T06:48:34.567Z,6.73
2023-12-26T06:51:06.245Z,6.67
2023-12-26T06:53:35.246Z,8.57
2023-12-26T06:56:06.571Z,8.10
2023-12-26T06:58:36.542Z,14.43
2023-12-26T07:01:05.403Z,9.00
2023-12-26T07:03:34.437Z,13.07
2023-12-26T07:06:02.944Z,10.67
2023-12-26T07:08:31.390Z,11.00
2023-12-26T07:10:59.796Z,11.93
2023-12-26T07:13:28.213Z,6.53
2023-12-26T07:15:58.059Z,14.50
2023-12-26T07:18:26.621Z,6.67
2023-12-26T07:20:55.086Z,7.40
2023-12-26T07:23:23.573Z,7.27
2023-12-26T07:25:51.960Z,8.77
2023-12-26T07:28:20.370Z,9.47
2023-12-26T07:30:48.821Z,10.50
2023-12-26T07:33:18.767Z,11.57
2023-12-26T07:35:47.463Z,14.23
2023-12-26T07:38:15.890Z,7.47
2023-12-26T07:40:44.494Z,6.00
2023-12-26T07:43:13.627Z,6.70
2023-12-26T07:45:42.028Z,8.03
2023-12-26T07:48:12.143Z,9.50
2023-12-26T07:50:42.622Z,6.17
2023-12-26T07:53:11.198Z,6.70
2023-12-26T07:55:39.624Z,10.77
2023-12-26T07:58:08.939Z,9.93
2023-12-26T08:00:37.496Z,9.97
2023-12-26T08:03:06.182Z,10.07
2023-12-26T08:05:34.867Z,7.60
2023-12-26T08:08:05.064Z,14.73
2023-12-26T08:10:33.720Z,9.13
2023-12-26T08:13:02.244Z,9.63
2023-12-26T08:15:31.256Z,6.43
2023-12-26T08:17:59.951Z,11.03
2023-12-26T08:20:28.713Z,12.53
2023-12-26T08:22:57.350Z,10.83
2023-12-26T08:25:27.472Z,8.37
2023-12-26T08:27:55.958Z,6.63
2023-12-26T08:30:24.452Z,6.03
2023-12-26T08:32:53.447Z,6.90
2023-12-26T08:35:21.986Z,14.30
2023-12-26T08:37:50.587Z,10.23
2023-12-26T08:40:20.248Z,7.43
2023-12-26T08:42:50.297Z,9.20
2023-12-26T08:45:19.071Z,9.67
2023-12-26T08:47:47.937Z,11.80
2023-12-26T08:50:16.865Z,11.80
2023-12-26T08:52:45.460Z,6.60
2023-12-26T08:55:14.778Z,10.30
2023-12-26T08:57:43.264Z,10.67
2023-12-26T09:00:15.559Z,11.90
2023-12-26T09:02:52.877Z,12.27
2023-12-26T09:05:28.934Z,8.20
2023-12-26T09:07:57.712Z,13.57
2023-12-26T09:10:26.326Z,12.27
2023-12-26T09:12:55.204Z,10.30
2023-12-26T09:15:25.259Z,13.47
2023-12-26T09:17:53.952Z,14.17
2023-12-26T09:20:22.652Z,6.27
2023-12-26T09:22:53.321Z,13.07
2023-12-26T09:25:22.005Z,12.00
2023-12-26T09:27:50.540Z,9.03
2023-12-26T09:30:19.756Z,12.93
2023-12-26T09:32:50.336Z,8.70
2023-12-26T09:35:19.108Z,9.23
2023-12-26T09:37:47.641Z,12.40
2023-12-26T09:40:16.521Z,12.87
2023-12-26T09:42:45.235Z,9.43
2023-12-26T09:45:14.511Z,11.07
2023-12-26T09:47:44.524Z,18.07
2023-12-26T09:50:14.847Z,10.43
2023-12-26T09:52:49.176Z,12.93
2023-12-26T09:55:18.456Z,10.93
2023-12-26T09:57:47.119Z,10.53
2023-12-26T10:00:16.488Z,12.87
2023-12-26T10:02:45.326Z,12.50
2023-12-26T10:05:15.547Z,21.73
2023-12-26T10:07:44.915Z,12.63
2023-12-26T10:10:20.894Z,16.50
2023-12-26T10:12:49.910Z,11.90
2023-12-26T10:15:19.904Z,13.10
2023-12-26T10:17:49.499Z,20.37
2023-12-26T10:20:19.957Z,20.37
2023-12-26T10:22:48.744Z,13.13
2023-12-26T10:25:17.632Z,18.40
2023-12-26T10:27:56.222Z,12.10
2023-12-26T10:30:27.249Z,17.23
2023-12-26T10:33:03.434Z,14.50
2023-12-26T10:35:35.074Z,18.40
2023-12-26T10:38:02.954Z,10.87
2023-12-26T10:40:31.447Z,14.20
2023-12-26T10:43:01.643Z,15.47
2023-12-26T10:45:32.244Z,11.97
2023-12-26T10:48:04.243Z,13.97
2023-12-26T10:50:35.219Z,13.23
2023-12-26T10:53:18.139Z,12.83
2023-12-26T10:55:48.490Z,19.93
2023-12-26T10:58:26.003Z,17.93
2023-12-26T11:02:00.481Z,10.90
2023-12-26T11:05:48.780Z,15.50
2023-12-26T11:09:30.821Z,16.97
2023-12-26T11:13:12.433Z,7.47
2023-12-26T11:16:54.525Z,12.27
2023-12-26T11:20:36.258Z,9.60
2023-12-26T11:24:18.179Z,13.57
2023-12-26T11:28:00.536Z,13.40
2023-12-26T11:31:42.080Z,19.33
2023-12-26T11:35:24.459Z,14.60
2023-12-26T11:39:07.328Z,13.10
2023-12-26T11:42:49.764Z,11.00
2023-12-26T11:46:31.757Z,10.50
2023-12-26T11:50:13.653Z,22.53
2023-12-26T11:53:55.195Z,11.30
2023-12-26T11:57:37.584Z,10.80
2023-12-26T12:01:19.610Z,13.40
2023-12-26T12:05:01.752Z,16.97
2023-12-26T12:08:43.484Z,14.27
2023-12-26T12:12:26.084Z,9.37
2023-12-26T12:16:08.645Z,10.17
2023-12-26T12:19:50.896Z,12.17
2023-12-26T12:23:33.677Z,10.97
2023-12-26T12:27:16.019Z,15.40
2023-12-26T12:30:58.370Z,12.63
2023-12-26T12:34:40.712Z,18.20
2023-12-26T12:38:23.114Z,18.00
2023-12-26T12:42:05.485Z,13.03
2023-12-26T12:45:47.731Z,14.20
2023-12-26T12:49:30.378Z,13.20
2023-12-26T12:53:13.201Z,10.20
2023-12-26T12:56:55.457Z,8.63
2023-12-26T13:00:37.729Z,17.47
2023-12-26T13:04:20.328Z,12.80
2023-12-26T13:08:02.890Z,13.07
2023-12-26T13:11:45.444Z,12.60
2023-12-26T13:15:27.799Z,19.03
2023-12-26T13:19:10.317Z,9.37
2023-12-26T13:22:52.914Z,10.13
2023-12-26T13:26:35.136Z,10.43
2023-12-26T13:30:16.890Z,9.60
2023-12-26T13:33:59.625Z,11.07
2023-12-26T13:37:42.141Z,13.37
2023-12-26T13:41:23.813Z,14.60
2023-12-26T13:45:05.633Z,10.77
2023-12-26T13:48:48.203Z,13.00
2023-12-26T13:52:14.260Z,11.57
2023-12-26T13:55:19.952Z,15.63
2023-12-26T13:58:25.719Z,14.47
2023-12-26T14:01:31.551Z,13.63
2023-12-26T14:04:40.381Z,11.80
2023-12-26T14:07:46.505Z,16.00
2023-12-26T14:10:52.478Z,15.20
2023-12-26T14:13:58.122Z,10.27
2023-12-26T14:17:04.326Z,9.77
2023-12-26T14:20:11.461Z,16.37
2023-12-26T14:23:17.547Z,15.27
2023-12-26T14:26:23.309Z,11.60
2023-12-26T14:29:29.373Z,14.50
2023-12-26T14:32:35.105Z,18.27
2023-12-26T14:35:40.927Z,15.43
2023-12-26T14:38:46.894Z,17.73
2023-12-26T14:41:52.865Z,13.87
2023-12-26T14:44:58.931Z,12.90
2023-12-26T14:48:04.996Z,15.17
2023-12-26T14:51:10.898Z,12.23
2023-12-26T14:54:16.829Z,11.93
2023-12-26T14:57:41.672Z,15.80
2023-12-26T15:00:47.505Z,12.30
2023-12-26T15:03:17.823Z,9.17
2023-12-26T15:05:46.587Z,12.13
2023-12-26T15:08:15.121Z,13.37
2023-12-26T15:10:43.665Z,16.60
2023-12-26T15:13:12.477Z,13.27
2023-12-26T15:15:41.324Z,16.00
2023-12-26T15:18:11.329Z,11.70
2023-12-26T15:20:42.090Z,12.47
2023-12-26T15:23:10.655Z,15.97
2023-12-26T15:25:39.301Z,8.07
2023-12-26T15:28:08.189Z,18.83
2023-12-26T15:30:36.849Z,12.33
2023-12-26T15:33:06.652Z,11.27
2023-12-26T15:35:35.294Z,12.97
2023-12-26T15:38:05.525Z,16.77
2023-12-26T15:40:34.147Z,14.40
2023-12-26T15:43:02.690Z,12.77
2023-12-26T15:45:31.427Z,12.00
2023-12-26T15:48:00.180Z,11.00
2023-12-26T15:50:28.862Z,13.00
2023-12-26T15:52:57.922Z,19.13
2023-12-26T15:55:28.051Z,16.90
2023-12-26T15:57:56.768Z,9.33
2023-12-26T16:00:25.468Z,21.10
2023-12-26T16:02:54.079Z,15.83
2023-12-26T16:05:22.727Z,17.10
2023-12-26T16:07:51.194Z,15.70
2023-12-26T16:10:21.591Z,14.33
2023-12-26T16:12:51.904Z,17.77
2023-12-26T16:15:21.514Z,17.53
2023-12-26T16:17:50.277Z,18.90
2023-12-26T16:20:18.754Z,12.20
2023-12-26T16:22:47.363Z,13.83
2023-12-26T16:25:15.892Z,15.17
2023-12-26T16:27:44.432Z,11.67
2023-12-26T16:30:15.242Z,16.07
2023-12-26T16:32:44.041Z,12.67
2023-12-26T16:35:12.682Z,18.17
2023-12-26T16:37:41.291Z,18.37
2023-12-26T16:40:11.462Z,12.93
2023-12-26T16:42:40.383Z,14.50
2023-12-26T16:45:09.566Z,15.23
2023-12-26T16:47:41.251Z,13.80
2023-12-26T16:50:10.246Z,14.47
2023-12-26T16:52:38.733Z,15.30
2023-12-26T16:55:08.132Z,18.43
2023-12-26T16:57:36.629Z,17.17
2023-12-26T17:00:06.315Z,19.03
2023-12-26T17:02:35.243Z,12.23
2023-12-26T17:05:07.596Z,11.07
2023-12-26T17:07:36.104Z,10.87
2023-12-26T17:10:05.031Z,17.70
2023-12-26T17:12:33.508Z,19.07
2023-12-26T17:15:01.992Z,15.73
2023-12-26T17:17:32.881Z,14.23
2023-12-26T17:20:01.554Z,22.23
2023-12-26T17:22:31.655Z,33.50
2023-12-26T17:25:00.299Z,18.90
2023-12-26T17:27:28.871Z,17.60
2023-12-26T17:29:57.490Z,16.13
2023-12-26T17:32:26.138Z,28.53
2023-12-26T17:34:55.338Z,15.57
2023-12-26T17:37:23.848Z,30.77
2023-12-26T17:39:53.820Z,23.43
2023-12-26T17:42:22.383Z,18.07
2023-12-26T17:44:50.930Z,16.57
2023-12-26T17:47:19.515Z,24.40
2023-12-26T17:49:48.091Z,13.83
2023-12-26T17:52:16.892Z,21.47
2023-12-26T17:54:45.674Z,25.93
2023-12-26T17:57:16.028Z,14.00
2023-12-26T17:59:44.684Z,29.00
2023-12-26T18:02:13.656Z,21.57
2023-12-26T18:04:42.218Z,26.67
2023-12-26T18:07:10.982Z,24.07
2023-12-26T18:09:39.651Z,32.60
2023-12-26T18:12:09.726Z,22.33
2023-12-26T18:14:39.763Z,21.93
2023-12-26T18:17:08.239Z,24.50
2023-12-26T18:19:36.823Z,27.10
2023-12-26T18:22:05.639Z,15.87
2023-12-26T18:24:34.281Z,21.80
2023-12-26T18:27:02.860Z,21.17
2023-12-26T18:29:31.427Z,17.40
2023-12-26T18:32:01.361Z,22.00
2023-12-26T18:34:34.074Z,19.93
2023-12-26T18:37:05.211Z,14.90
2023-12-26T18:39:34.257Z,12.10
2023-12-26T18:42:03.085Z,20.27
2023-12-26T18:44:31.603Z,26.30
2023-12-26T18:47:01.469Z,16.07
2023-12-26T18:49:30.248Z,14.87
2023-12-26T18:51:58.972Z,18.40
2023-12-26T18:54:27.652Z,13.70
2023-12-26T18:56:56.176Z,9.93
2023-12-26T18:59:24.810Z,12.83
2023-12-26T19:01:55.910Z,18.83
2023-12-26T19:04:26.135Z,12.80
2023-12-26T19:06:54.887Z,16.77
2023-12-26T19:09:23.633Z,13.87
2023-12-26T19:11:52.229Z,17.67
2023-12-26T19:14:21.048Z,12.37
2023-12-26T19:16:49.681Z,11.70
2023-12-26T19:19:19.296Z,14.77
2023-12-26T19:21:49.490Z,20.20
2023-12-26T19:24:18.738Z,16.50
2023-12-26T19:26:51.988Z,13.70
2023-12-26T19:29:20.596Z,15.40
2023-12-26T19:31:49.258Z,12.50
2023-12-26T19:34:18.529Z,14.33
2023-12-26T19:36:48.837Z,18.83
2023-12-26T19:39:17.441Z,25.07
2023-12-26T19:41:46.170Z,11.07
2023-12-26T19:44:18.218Z,8.17
2023-12-26T19:46:47.583Z,13.20
2023-12-26T19:49:16.347Z,8.30
2023-12-26T19:51:45.025Z,12.50
2023-12-26T19:54:15.199Z,12.43
2023-12-26T19:56:43.952Z,14.50
2023-12-26T19:59:14.288Z,11.27
2023-12-26T20:01:43.084Z,10.43
2023-12-26T20:04:11.881Z,8.20
2023-12-26T20:06:45.096Z,15.37
2023-12-26T20:09:19.800Z,10.60
2023-12-26T20:11:49.238Z,12.60
2023-12-26T20:14:18.817Z,10.23
2023-12-26T20:16:49.223Z,12.60
2023-12-26T20:19:19.545Z,17.53
2023-12-26T20:21:49.331Z,12.67
2023-12-26T20:24:19.442Z,14.60
2023-12-26T20:26:49.925Z,14.13
2023-12-26T20:29:20.922Z,15.63
2023-12-26T20:31:51.912Z,13.87
2023-12-26T20:34:21.236Z,15.43
2023-12-26T20:36:50.830Z,14.90
2023-12-26T20:39:22.044Z,28.50
2023-12-26T20:41:52.934Z,22.27
2023-12-26T20:44:21.630Z,24.80
2023-12-26T20:46:50.767Z,17.53
2023-12-26T20:49:20.248Z,22.60
2023-12-26T20:51:49.164Z,20.47
2023-12-26T20:54:18.768Z,23.10
2023-12-26T20:56:49.884Z,19.47
2023-12-26T20:59:20.530Z,18.90
2023-12-26T21:01:49.134Z,25.67
2023-12-26T21:04:19.457Z,17.03
2023-12-26T21:06:48.952Z,15.80
2023-12-26T21:09:19.124Z,15.87
2023-12-26T21:11:49.007Z,17.90
2023-12-26T21:14:18.273Z,10.23
2023-12-26T21:16:47.126Z,14.37
2023-12-26T21:19:15.959Z,10.40
2023-12-26T21:21:44.552Z,17.50
2023-12-26T21:24:13.334Z,15.63
2023-12-26T21:26:42.180Z,12.13
2023-12-26T21:29:12.264Z,22.47
2023-12-26T21:31:41.850Z,16.70
2023-12-26T21:34:10.662Z,21.67
2023-12-26T21:36:39.555Z,21.43
2023-12-26T21:39:09.376Z,20.87
2023-12-26T21:41:42.805Z,17.93
2023-12-26T21:44:15.218Z,17.90
2023-12-26T21:46:46.821Z,15.13
2023-12-26T21:49:15.881Z,15.90
2023-12-26T21:51:44.466Z,21.43
2023-12-26T21:54:13.287Z,10.07
2023-12-26T21:56:44.155Z,25.47
2023-12-26T21:59:14.603Z,22.33
2023-12-26T22:01:45.950Z,19.57
2023-12-26T22:04:15.521Z,18.83
2023-12-26T22:06:47.535Z,17.40
2023-12-26T22:09:17.834Z,27.17
2023-12-26T22:11:46.872Z,25.67
2023-12-26T22:14:17.249Z,15.83
2023-12-26T22:16:46.675Z,21.47
2023-12-26T22:19:15.513Z,22.43
2023-12-26T22:21:45.284Z,12.60
2023-12-26T22:24:13.888Z,18.73
2023-12-26T22:26:43.614Z,23.70
2023-12-26T22:29:12.572Z,25.47
2023-12-26T22:31:42.468Z,14.47
2023-12-26T22:34:13.528Z,25.00
2023-12-26T22:36:42.706Z,18.73
2023-12-26T22:39:14.969Z,16.97
2023-12-26T22:41:43.621Z,26.20
2023-12-26T22:44:15.653Z,21.93
2023-12-26T22:46:45.831Z,15.63
2023-12-26T22:49:14.519Z,22.03
2023-12-26T22:51:43.310Z,18.13
2023-12-26T22:54:11.931Z,14.97
2023-12-26T22:56:41.635Z,21.30
2023-12-26T22:59:12.449Z,13.53
2023-12-26T23:01:46.879Z,21.90
2023-12-26T23:04:15.826Z,13.10
2023-12-26T23:06:44.905Z,10.63
2023-12-26T23:09:15.408Z,15.60
2023-12-26T23:11:44.150Z,9.83
2023-12-26T23:14:13.226Z,16.70
2023-12-26T23:16:42.743Z,24.80
2023-12-26T23:19:13.683Z,19.43
2023-12-26T23:21:43.031Z,13.77
2023-12-26T23:24:11.520Z,19.17
2023-12-26T23:26:43.068Z,20.87
2023-12-26T23:29:13.834Z,19.17
2023-12-26T23:31:42.802Z,15.53
2023-12-26T23:34:13.379Z,15.57
2023-12-26T23:36:41.830Z,13.70
2023-12-26T23:39:12.305Z,9.67
2023-12-26T23:41:41.627Z,16.80
2023-12-26T23:44:10.301Z,16.80
2023-12-26T23:46:39.661Z,13.50
2023-12-26T23:49:08.350Z,12.83
2023-12-26T23:51:38.760Z,8.47
2023-12-26T23:54:07.311Z,13.43
2023-12-26T23:56:36.414Z,23.87
2023-12-26T23:59:04.949Z,16.97
